createdAt,value
2018-11-23T00:00:04.554Z,981.56
2018-11-23T00:01:04.726Z,981.51
2018-11-23T00:02:04.887Z,981.58
2018-11-23T00:03:04.864Z,981.56
2018-11-23T00:04:05.398Z,981.51
2018-11-23T00:05:05.351Z,981.64
2018-11-23T00:06:04.719Z,981.72
2018-11-23T00:07:04.723Z,981.43
2018-11-23T00:08:04.841Z,981.61
2018-11-23T00:09:05.415Z,981.58
2018-11-23T00:10:04.896Z,981.64
2018-11-23T00:11:05.052Z,981.67
2018-11-23T00:12:04.976Z,981.75
2018-11-23T00:13:05.117Z,981.70
2018-11-23T00:14:05.083Z,981.72
2018-11-23T00:15:04.652Z,981.72
2018-11-23T00:16:04.594Z,981.61
2018-11-23T00:17:05.273Z,981.75
2018-11-23T00:18:04.525Z,981.84
2018-11-23T00:19:04.624Z,981.72
2018-11-23T00:20:04.823Z,981.78
2018-11-23T00:21:05.011Z,981.70
2018-11-23T00:22:04.744Z,981.64
2018-11-23T00:23:04.885Z,981.70
2018-11-23T00:24:05.181Z,981.56
2018-11-23T00:25:05.080Z,981.67
2018-11-23T00:26:05.414Z,981.67
2018-11-23T00:27:04.570Z,981.78
2018-11-23T00:28:05.096Z,981.78
2018-11-23T00:29:04.921Z,981.78
2018-11-23T00:30:05.383Z,981.67
2018-11-23T00:31:04.555Z,981.56
2018-11-23T00:32:05.145Z,981.56
2018-11-23T00:33:05.135Z,981.64
2018-11-23T00:34:05.159Z,981.58
2018-11-23T00:35:05.265Z,981.67
2018-11-23T00:36:05.293Z,981.58
2018-11-23T00:37:05.198Z,981.70
2018-11-23T00:38:04.938Z,981.70
2018-11-23T00:39:04.944Z,981.84
2018-11-23T00:40:05.352Z,981.72
2018-11-23T00:41:10.427Z,981.75
2018-11-23T00:42:04.937Z,981.67
2018-11-23T00:43:05.377Z,981.81
2018-11-23T00:44:05.237Z,981.75
2018-11-23T00:45:05.372Z,981.86
2018-11-23T00:46:05.320Z,981.72
2018-11-23T00:47:04.588Z,981.86
2018-11-23T00:48:05.066Z,981.78
2018-11-23T00:49:05.244Z,981.81
2018-11-23T00:50:05.057Z,981.81
2018-11-23T00:51:05.062Z,981.86
2018-11-23T00:52:05.177Z,981.81
2018-11-23T00:53:04.891Z,981.86
2018-11-23T00:54:04.758Z,981.92
2018-11-23T00:55:04.825Z,981.75
2018-11-23T00:56:04.983Z,981.78
2018-11-23T00:57:04.912Z,981.98
2018-11-23T00:58:04.837Z,981.78
2018-11-23T00:59:04.946Z,981.81
2018-11-23T01:00:05.383Z,981.75
2018-11-23T01:01:04.464Z,981.78
2018-11-23T01:02:04.837Z,981.89
2018-11-23T01:03:05.431Z,981.89
2018-11-23T01:04:04.597Z,981.75
2018-11-23T01:05:04.928Z,981.67
2018-11-23T01:06:04.992Z,981.75
2018-11-23T01:07:05.068Z,981.89
2018-11-23T01:08:05.164Z,981.81
2018-11-23T01:09:05.316Z,981.92
2018-11-23T01:10:05.263Z,981.78
2018-11-23T01:11:05.281Z,981.84
2018-11-23T01:12:05.377Z,981.81
2018-11-23T01:13:05.295Z,981.78
2018-11-23T01:14:05.265Z,981.75
2018-11-23T01:15:05.376Z,981.70
2018-11-23T01:16:04.596Z,981.84
2018-11-23T01:17:04.750Z,981.78
2018-11-23T01:18:04.877Z,981.67
2018-11-23T01:19:05.150Z,981.92
2018-11-23T01:20:05.119Z,981.84
2018-11-23T01:21:05.080Z,981.67
2018-11-23T01:22:05.096Z,981.81
2018-11-23T01:23:05.319Z,981.72
2018-11-23T01:24:05.226Z,981.78
2018-11-23T01:25:04.813Z,981.58
2018-11-23T01:26:05.195Z,981.72
2018-11-23T01:27:05.160Z,981.72
2018-11-23T01:28:10.162Z,981.67
2018-11-23T01:29:04.551Z,981.75
2018-11-23T01:30:04.807Z,981.78
2018-11-23T01:31:05.227Z,981.81
2018-11-23T01:32:05.160Z,981.67
2018-11-23T01:33:05.226Z,981.70
2018-11-23T01:34:05.302Z,981.70
2018-11-23T01:35:04.793Z,981.84
2018-11-23T01:36:05.009Z,981.70
2018-11-23T01:37:05.200Z,981.81
2018-11-23T01:38:05.231Z,981.81
2018-11-23T01:39:05.198Z,981.81
2018-11-23T01:40:05.126Z,981.84
2018-11-23T01:41:05.344Z,981.70
2018-11-23T01:42:04.518Z,981.89
2018-11-23T01:43:04.509Z,981.78
2018-11-23T01:44:04.940Z,981.84
2018-11-23T01:45:05.416Z,981.86
2018-11-23T01:46:04.668Z,981.86
2018-11-23T01:47:04.628Z,981.72
2018-11-23T01:48:04.660Z,981.72
2018-11-23T01:49:04.955Z,981.67
2018-11-23T01:50:04.797Z,981.86
2018-11-23T01:51:04.841Z,981.72
2018-11-23T01:52:04.843Z,981.86
2018-11-23T01:53:04.475Z,981.70
2018-11-23T01:54:05.035Z,981.75
2018-11-23T01:55:05.080Z,981.67
2018-11-23T01:56:05.120Z,981.70
2018-11-23T01:57:04.577Z,981.58
2018-11-23T01:58:04.435Z,981.70
2018-11-23T01:59:04.639Z,981.78
2018-11-23T02:00:05.207Z,981.67
2018-11-23T02:01:05.131Z,981.67
2018-11-23T02:02:04.474Z,981.48
2018-11-23T02:03:05.495Z,981.58
2018-11-23T02:04:04.839Z,981.58
2018-11-23T02:05:04.805Z,981.70
2018-11-23T02:06:04.822Z,981.75
2018-11-23T02:07:05.069Z,981.67
2018-11-23T02:08:05.125Z,981.72
2018-11-23T02:09:05.437Z,981.72
2018-11-23T02:10:05.370Z,981.61
2018-11-23T02:11:04.457Z,981.67
2018-11-23T02:12:05.058Z,981.70
2018-11-23T02:13:04.944Z,981.64
2018-11-23T02:14:04.889Z,981.70
2018-11-23T02:15:04.966Z,981.69
2018-11-23T02:16:04.903Z,981.58
2018-11-23T02:17:04.808Z,981.58
2018-11-23T02:18:04.932Z,981.58
2018-11-23T02:19:05.421Z,981.56
2018-11-23T02:20:04.776Z,981.64
2018-11-23T02:21:04.832Z,981.64
2018-11-23T02:22:04.802Z,981.64
2018-11-23T02:23:05.151Z,981.70
2018-11-23T02:24:05.287Z,981.70
2018-11-23T02:25:05.188Z,981.51
2018-11-23T02:26:05.152Z,981.64
2018-11-23T02:27:04.591Z,981.58
2018-11-23T02:28:10.051Z,981.61
2018-11-23T02:29:05.432Z,981.69
2018-11-23T02:30:04.772Z,981.61
2018-11-23T02:31:04.713Z,981.51
2018-11-23T02:32:04.700Z,981.67
2018-11-23T02:33:04.791Z,981.61
2018-11-23T02:34:04.860Z,981.51
2018-11-23T02:35:04.932Z,981.75
2018-11-23T02:36:04.443Z,981.61
2018-11-23T02:37:04.476Z,981.58
2018-11-23T02:38:05.056Z,981.56
2018-11-23T02:39:05.120Z,981.67
2018-11-23T02:40:05.093Z,981.70
2018-11-23T02:41:05.182Z,981.61
2018-11-23T02:42:05.256Z,981.61
2018-11-23T02:43:05.097Z,981.56
2018-11-23T02:44:05.135Z,981.58
2018-11-23T02:45:05.084Z,981.61
2018-11-23T02:46:04.459Z,981.61
2018-11-23T02:47:04.443Z,981.54
2018-11-23T02:48:04.800Z,981.67
2018-11-23T02:49:04.916Z,981.70
2018-11-23T02:50:05.186Z,981.64
2018-11-23T02:51:05.218Z,981.64
2018-11-23T02:52:05.103Z,981.56
2018-11-23T02:53:05.188Z,981.64
2018-11-23T02:54:05.101Z,981.64
2018-11-23T02:55:05.047Z,981.67
2018-11-23T02:56:04.539Z,981.64
2018-11-23T02:57:05.036Z,981.61
2018-11-23T02:58:04.972Z,981.75
2018-11-23T02:59:04.978Z,981.61
2018-11-23T03:00:05.148Z,981.75
2018-11-23T03:01:05.369Z,981.64
2018-11-23T03:02:05.183Z,981.64
2018-11-23T03:03:05.217Z,981.56
2018-11-23T03:04:05.359Z,981.58
2018-11-23T03:05:04.855Z,981.61
2018-11-23T03:06:04.910Z,981.70
2018-11-23T03:07:04.889Z,981.59
2018-11-23T03:08:05.002Z,981.73
2018-11-23T03:09:04.921Z,981.61
2018-11-23T03:10:05.070Z,981.70
2018-11-23T03:11:05.436Z,981.54
2018-11-23T03:12:05.340Z,981.48
2018-11-23T03:13:05.140Z,981.56
2018-11-23T03:14:05.098Z,981.51
2018-11-23T03:15:05.320Z,981.59
2018-11-23T03:16:04.683Z,981.56
2018-11-23T03:17:04.618Z,981.54
2018-11-23T03:18:05.050Z,981.56
2018-11-23T03:19:04.985Z,981.49
2018-11-23T03:20:05.029Z,981.54
2018-11-23T03:21:05.046Z,981.56
2018-11-23T03:22:05.343Z,981.59
2018-11-23T03:23:04.826Z,981.64
2018-11-23T03:24:04.918Z,981.59
2018-11-23T03:25:04.847Z,981.70
2018-11-23T03:26:05.163Z,981.64
2018-11-23T03:27:04.681Z,981.73
2018-11-23T03:28:09.814Z,981.59
2018-11-23T03:29:05.139Z,981.64
2018-11-23T03:30:05.228Z,981.59
2018-11-23T03:31:12.683Z,981.70
2018-11-23T03:32:05.365Z,981.67
2018-11-23T03:33:04.519Z,981.70
2018-11-23T03:34:04.638Z,981.49
2018-11-23T03:35:04.579Z,981.62
2018-11-23T03:36:04.681Z,981.73
2018-11-23T03:37:04.564Z,981.67
2018-11-23T03:38:04.586Z,981.56
2018-11-23T03:39:04.581Z,981.64
2018-11-23T03:40:04.722Z,981.56
2018-11-23T03:41:04.767Z,981.62
2018-11-23T03:42:04.883Z,981.56
2018-11-23T03:43:04.918Z,981.51
2018-11-23T03:44:05.287Z,981.56
2018-11-23T03:45:05.270Z,981.56
2018-11-23T03:46:04.511Z,981.51
2018-11-23T03:47:04.607Z,981.54
2018-11-23T03:48:04.783Z,981.40
2018-11-23T03:49:04.748Z,981.54
2018-11-23T03:50:05.202Z,981.56
2018-11-23T03:51:05.291Z,981.56
2018-11-23T03:52:05.339Z,981.59
2018-11-23T03:53:05.201Z,981.48
2018-11-23T03:54:05.241Z,981.51
2018-11-23T03:55:05.379Z,981.43
2018-11-23T03:56:04.791Z,981.48
2018-11-23T03:57:04.953Z,981.34
2018-11-23T03:58:05.218Z,981.43
2018-11-23T03:59:04.626Z,981.43
2018-11-23T04:00:04.863Z,981.35
2018-11-23T04:01:05.359Z,981.54
2018-11-23T04:02:04.795Z,981.40
2018-11-23T04:03:04.991Z,981.46
2018-11-23T04:04:04.970Z,981.43
2018-11-23T04:05:04.953Z,981.32
2018-11-23T04:06:04.976Z,981.35
2018-11-23T04:07:04.959Z,981.43
2018-11-23T04:08:04.962Z,981.26
2018-11-23T04:09:04.998Z,981.29
2018-11-23T04:10:04.965Z,981.32
2018-11-23T04:11:04.732Z,981.29
2018-11-23T04:12:05.255Z,981.37
2018-11-23T04:13:05.069Z,981.32
2018-11-23T04:14:05.027Z,981.29
2018-11-23T04:15:05.223Z,981.34
2018-11-23T04:16:04.723Z,981.29
2018-11-23T04:17:04.787Z,981.18
2018-11-23T04:18:04.948Z,981.26
2018-11-23T04:19:05.037Z,981.23
2018-11-23T04:20:04.566Z,981.18
2018-11-23T04:21:04.797Z,981.29
2018-11-23T04:22:04.778Z,981.20
2018-11-23T04:23:04.719Z,981.32
2018-11-23T04:24:04.776Z,981.26
2018-11-23T04:25:05.090Z,981.26
2018-11-23T04:26:05.250Z,981.29
2018-11-23T04:27:05.523Z,981.26
2018-11-23T04:28:04.703Z,981.26
2018-11-23T04:29:05.161Z,981.21
2018-11-23T04:30:05.023Z,981.29
2018-11-23T04:31:05.252Z,981.18
2018-11-23T04:32:04.425Z,981.23
2018-11-23T04:33:04.516Z,981.12
2018-11-23T04:34:04.901Z,981.26
2018-11-23T04:35:05.067Z,981.21
2018-11-23T04:36:05.251Z,981.10
2018-11-23T04:37:05.201Z,981.24
2018-11-23T04:38:05.342Z,981.46
2018-11-23T04:39:04.655Z,981.24
2018-11-23T04:40:09.572Z,981.35
2018-11-23T04:41:05.008Z,981.32
2018-11-23T04:42:05.218Z,981.24
2018-11-23T04:43:05.273Z,981.21
2018-11-23T04:44:04.598Z,981.27
2018-11-23T04:45:04.939Z,981.27
2018-11-23T04:46:04.529Z,981.29
2018-11-23T04:47:04.712Z,981.32
2018-11-23T04:48:04.978Z,981.21
2018-11-23T04:49:05.049Z,981.27
2018-11-23T04:50:05.211Z,981.44
2018-11-23T04:51:05.143Z,981.27
2018-11-23T04:52:05.174Z,981.35
2018-11-23T04:53:05.213Z,981.30
2018-11-23T04:54:05.276Z,981.27
2018-11-23T04:55:05.317Z,981.35
2018-11-23T04:56:05.407Z,981.21
2018-11-23T04:57:05.379Z,981.44
2018-11-23T04:58:05.436Z,981.27
2018-11-23T04:59:04.594Z,981.24
2018-11-23T05:00:05.087Z,981.30
2018-11-23T05:01:05.162Z,981.35
2018-11-23T05:02:05.332Z,981.35
2018-11-23T05:03:05.477Z,981.27
2018-11-23T05:04:05.456Z,981.50
2018-11-23T05:05:04.450Z,981.41
2018-11-23T05:06:04.994Z,981.38
2018-11-23T05:07:05.340Z,981.33
2018-11-23T05:08:04.693Z,981.36
2018-11-23T05:09:04.865Z,981.36
2018-11-23T05:10:04.418Z,981.52
2018-11-23T05:11:05.087Z,981.38
2018-11-23T05:12:05.466Z,981.30
2018-11-23T05:13:04.612Z,981.33
2018-11-23T05:14:04.852Z,981.33
2018-11-23T05:15:05.114Z,981.33
2018-11-23T05:16:04.991Z,981.19
2018-11-23T05:17:05.092Z,981.33
2018-11-23T05:18:04.701Z,981.44
2018-11-23T05:19:04.990Z,981.27
2018-11-23T05:20:04.561Z,981.36
2018-11-23T05:21:04.750Z,981.30
2018-11-23T05:22:04.874Z,981.25
2018-11-23T05:23:04.768Z,981.30
2018-11-23T05:24:04.777Z,981.11
2018-11-23T05:25:05.591Z,981.22
2018-11-23T05:26:04.632Z,981.19
2018-11-23T05:27:04.710Z,981.13
2018-11-23T05:28:04.943Z,981.19
2018-11-23T05:29:04.907Z,981.11
2018-11-23T05:30:05.621Z,981.08
2018-11-23T05:31:05.480Z,981.11
2018-11-23T05:32:04.783Z,980.97
2018-11-23T05:33:04.946Z,981.08
2018-11-23T05:34:04.953Z,981.02
2018-11-23T05:35:05.141Z,981.08
2018-11-23T05:36:05.503Z,980.97
2018-11-23T05:37:05.460Z,981.02
2018-11-23T05:38:04.537Z,981.11
2018-11-23T05:39:04.473Z,981.00
2018-11-23T05:40:04.880Z,981.00
2018-11-23T05:41:05.214Z,981.05
2018-11-23T05:42:05.080Z,981.17
2018-11-23T05:43:05.029Z,980.97
2018-11-23T05:44:04.627Z,981.14
2018-11-23T05:45:04.483Z,981.08
2018-11-23T05:46:05.038Z,981.03
2018-11-23T05:47:04.905Z,981.08
2018-11-23T05:48:09.950Z,980.94
2018-11-23T05:49:05.452Z,981.08
2018-11-23T05:50:04.692Z,981.11
2018-11-23T05:51:04.783Z,980.92
2018-11-23T05:52:04.858Z,981.00
2018-11-23T05:53:04.915Z,981.03
2018-11-23T05:54:04.817Z,980.97
2018-11-23T05:55:04.968Z,981.03
2018-11-23T05:56:04.487Z,980.98
2018-11-23T05:57:04.909Z,980.95
2018-11-23T05:58:04.743Z,981.00
2018-11-23T05:59:05.062Z,980.81
2018-11-23T06:00:05.284Z,980.92
2018-11-23T06:01:05.756Z,980.78
2018-11-23T06:02:04.947Z,980.95
2018-11-23T06:03:05.247Z,980.78
2018-11-23T06:04:04.789Z,980.89
2018-11-23T06:05:05.244Z,980.92
2018-11-23T06:06:04.861Z,980.81
2018-11-23T06:07:04.904Z,980.87
2018-11-23T06:08:05.192Z,980.87
2018-11-23T06:09:05.215Z,980.89
2018-11-23T06:10:04.595Z,980.81
2018-11-23T06:11:04.614Z,980.89
2018-11-23T06:12:04.875Z,980.84
2018-11-23T06:13:04.929Z,980.81
2018-11-23T06:14:04.841Z,980.89
2018-11-23T06:15:04.850Z,980.92
2018-11-23T06:16:04.912Z,980.81
2018-11-23T06:17:05.053Z,980.92
2018-11-23T06:18:04.883Z,980.84
2018-11-23T06:19:04.900Z,980.95
2018-11-23T06:20:05.254Z,980.95
2018-11-23T06:21:04.789Z,980.92
2018-11-23T06:22:04.751Z,980.98
2018-11-23T06:23:04.870Z,980.92
2018-11-23T06:24:05.143Z,980.87
2018-11-23T06:25:05.260Z,980.98
2018-11-23T06:26:05.296Z,980.95
2018-11-23T06:27:04.898Z,980.87
2018-11-23T06:28:10.351Z,980.84
2018-11-23T06:29:04.711Z,980.81
2018-11-23T06:30:05.333Z,980.84
2018-11-23T06:31:04.507Z,980.92
2018-11-23T06:32:04.557Z,981.06
2018-11-23T06:33:04.779Z,981.03
2018-11-23T06:34:05.264Z,980.95
2018-11-23T06:35:04.653Z,980.98
2018-11-23T06:36:05.208Z,980.98
2018-11-23T06:37:05.070Z,980.92
2018-11-23T06:38:04.576Z,980.92
2018-11-23T06:39:04.783Z,980.81
2018-11-23T06:40:05.187Z,981.01
2018-11-23T06:41:10.821Z,980.95
2018-11-23T06:42:05.367Z,981.12
2018-11-23T06:43:05.436Z,981.04
2018-11-23T06:44:05.539Z,981.10
2018-11-23T06:45:04.821Z,980.98
2018-11-23T06:46:04.925Z,980.98
2018-11-23T06:47:04.451Z,981.04
2018-11-23T06:48:10.512Z,981.04
2018-11-23T06:49:05.003Z,980.96
2018-11-23T06:50:04.870Z,980.93
2018-11-23T06:51:04.981Z,981.10
2018-11-23T06:52:05.463Z,980.96
2018-11-23T06:53:05.552Z,981.18
2018-11-23T06:54:05.482Z,981.07
2018-11-23T06:55:05.139Z,981.10
2018-11-23T06:56:04.942Z,980.99
2018-11-23T06:57:04.899Z,981.02
2018-11-23T06:58:05.037Z,981.02
2018-11-23T06:59:05.251Z,980.85
2018-11-23T07:00:04.793Z,981.02
2018-11-23T07:01:04.925Z,981.05
2018-11-23T07:02:04.853Z,981.10
2018-11-23T07:03:04.891Z,981.02
2018-11-23T07:04:04.631Z,981.13
2018-11-23T07:05:04.546Z,981.08
2018-11-23T07:06:04.972Z,981.10
2018-11-23T07:07:04.974Z,981.19
2018-11-23T07:08:04.954Z,981.08
2018-11-23T07:09:05.050Z,981.10
2018-11-23T07:10:05.031Z,981.24
2018-11-23T07:11:05.305Z,981.10
2018-11-23T07:12:04.597Z,981.22
2018-11-23T07:13:05.095Z,981.13
2018-11-23T07:14:04.796Z,981.05
2018-11-23T07:15:04.765Z,981.19
2018-11-23T07:16:04.925Z,981.11
2018-11-23T07:17:04.928Z,981.08
2018-11-23T07:18:05.205Z,981.11
2018-11-23T07:19:05.313Z,981.05
2018-11-23T07:20:04.665Z,980.97
2018-11-23T07:21:04.784Z,981.16
2018-11-23T07:22:04.951Z,981.16
2018-11-23T07:23:05.346Z,981.05
2018-11-23T07:24:04.843Z,981.16
2018-11-23T07:25:04.984Z,981.11
2018-11-23T07:26:05.333Z,981.13
2018-11-23T07:27:05.339Z,981.08
2018-11-23T07:28:16.050Z,981.13
2018-11-23T07:29:05.598Z,981.25
2018-11-23T07:30:05.363Z,981.19
2018-11-23T07:31:05.406Z,981.22
2018-11-23T07:32:05.401Z,981.13
2018-11-23T07:33:05.410Z,981.19
2018-11-23T07:34:04.709Z,981.13
2018-11-23T07:35:04.751Z,981.22
2018-11-23T07:36:05.243Z,981.08
2018-11-23T07:37:05.139Z,981.19
2018-11-23T07:38:04.807Z,981.16
2018-11-23T07:39:04.883Z,981.16
2018-11-23T07:40:04.638Z,981.13
2018-11-23T07:41:04.741Z,981.36
2018-11-23T07:42:05.041Z,981.33
2018-11-23T07:43:05.043Z,981.22
2018-11-23T07:44:05.147Z,981.21
2018-11-23T07:45:04.867Z,981.35
2018-11-23T07:46:05.414Z,981.10
2018-11-23T07:47:05.253Z,981.24
2018-11-23T07:48:10.394Z,981.13
2018-11-23T07:49:04.710Z,981.30
2018-11-23T07:50:05.120Z,981.30
2018-11-23T07:51:05.384Z,981.27
2018-11-23T07:52:04.636Z,981.32
2018-11-23T07:53:04.537Z,981.30
2018-11-23T07:54:04.499Z,981.13
2018-11-23T07:55:04.935Z,981.04
2018-11-23T07:56:04.826Z,981.24
2018-11-23T07:57:04.907Z,981.21
2018-11-23T07:58:05.314Z,981.32
2018-11-23T07:59:05.335Z,981.18
2018-11-23T08:00:04.530Z,981.24
2018-11-23T08:01:04.897Z,981.24
2018-11-23T08:02:05.059Z,981.18
2018-11-23T08:03:05.062Z,981.26
2018-11-23T08:04:05.484Z,981.40
2018-11-23T08:05:05.469Z,981.26
2018-11-23T08:06:04.913Z,981.35
2018-11-23T08:07:04.746Z,981.29
2018-11-23T08:08:05.285Z,981.32
2018-11-23T08:09:04.501Z,981.23
2018-11-23T08:10:05.561Z,981.26
2018-11-23T08:11:04.968Z,981.31
2018-11-23T08:12:05.210Z,981.37
2018-11-23T08:13:04.650Z,981.31
2018-11-23T08:14:04.664Z,981.42
2018-11-23T08:15:04.654Z,981.42
2018-11-23T08:16:05.012Z,981.23
2018-11-23T08:17:05.477Z,981.37
2018-11-23T08:18:05.471Z,981.34
2018-11-23T08:19:04.955Z,981.28
2018-11-23T08:20:04.940Z,981.36
2018-11-23T08:21:05.121Z,981.42
2018-11-23T08:22:05.168Z,981.36
2018-11-23T08:23:04.548Z,981.33
2018-11-23T08:24:04.716Z,981.27
2018-11-23T08:25:04.976Z,981.41
2018-11-23T08:26:05.553Z,981.44
2018-11-23T08:27:04.596Z,981.21
2018-11-23T08:28:09.833Z,981.19
2018-11-23T08:29:05.273Z,981.33
2018-11-23T08:30:04.665Z,981.16
2018-11-23T08:31:04.748Z,981.24
2018-11-23T08:32:04.969Z,981.38
2018-11-23T08:33:05.044Z,981.32
2018-11-23T08:34:04.644Z,981.46
2018-11-23T08:35:05.050Z,981.29
2018-11-23T08:36:05.204Z,981.32
2018-11-23T08:37:05.394Z,981.37
2018-11-23T08:38:05.464Z,981.49
2018-11-23T08:39:05.489Z,981.32
2018-11-23T08:40:05.559Z,981.32
2018-11-23T08:41:05.920Z,981.23
2018-11-23T08:42:05.405Z,981.40
2018-11-23T08:43:05.480Z,981.20
2018-11-23T08:44:04.931Z,981.34
2018-11-23T08:45:04.819Z,981.14
2018-11-23T08:46:05.324Z,981.31
2018-11-23T08:47:04.877Z,981.25
2018-11-23T08:48:04.787Z,981.17
2018-11-23T08:49:05.466Z,981.31
2018-11-23T08:50:04.796Z,981.14
2018-11-23T08:51:04.722Z,981.34
2018-11-23T08:52:04.636Z,981.28
2018-11-23T08:53:04.608Z,981.39
2018-11-23T08:54:04.461Z,981.28
2018-11-23T08:55:04.547Z,981.33
2018-11-23T08:56:04.745Z,981.30
2018-11-23T08:57:04.726Z,981.36
2018-11-23T08:58:04.726Z,981.30
2018-11-23T08:59:04.653Z,981.41
2018-11-23T09:00:04.690Z,981.36
2018-11-23T09:01:05.345Z,981.47
2018-11-23T09:02:05.296Z,981.38
2018-11-23T09:03:05.353Z,981.33
2018-11-23T09:04:04.698Z,981.38
2018-11-23T09:05:04.860Z,981.30
2018-11-23T09:06:05.428Z,981.21
2018-11-23T09:07:05.450Z,981.27
2018-11-23T09:08:04.531Z,981.33
2018-11-23T09:09:04.592Z,981.24
2018-11-23T09:10:04.553Z,981.27
2018-11-23T09:11:04.780Z,981.07
2018-11-23T09:12:04.653Z,981.21
2018-11-23T09:13:05.180Z,981.27
2018-11-23T09:14:05.412Z,981.24
2018-11-23T09:15:04.872Z,981.41
2018-11-23T09:16:05.065Z,981.43
2018-11-23T09:17:05.205Z,981.41
2018-11-23T09:18:05.213Z,981.32
2018-11-23T09:19:05.313Z,981.43
2018-11-23T09:20:04.610Z,981.46
2018-11-23T09:21:04.840Z,981.37
2018-11-23T09:22:05.127Z,981.37
2018-11-23T09:23:05.429Z,981.48
2018-11-23T09:24:05.402Z,981.32
2018-11-23T09:25:04.869Z,981.40
2018-11-23T09:26:04.877Z,981.48
2018-11-23T09:27:05.060Z,981.56
2018-11-23T09:28:10.154Z,981.40
2018-11-23T09:29:04.732Z,981.40
2018-11-23T09:30:04.567Z,981.34
2018-11-23T09:31:04.991Z,981.42
2018-11-23T09:32:05.118Z,981.39
2018-11-23T09:33:05.071Z,981.28
2018-11-23T09:34:05.120Z,981.45
2018-11-23T09:35:04.675Z,981.42
2018-11-23T09:36:04.936Z,981.39
2018-11-23T09:37:05.120Z,981.42
2018-11-23T09:38:05.445Z,981.36
2018-11-23T09:39:05.332Z,981.36
2018-11-23T09:40:04.639Z,981.47
2018-11-23T09:41:04.711Z,981.45
2018-11-23T09:42:04.695Z,981.66
2018-11-23T09:43:05.182Z,981.56
2018-11-23T09:44:05.297Z,981.44
2018-11-23T09:45:04.595Z,981.47
2018-11-23T09:46:04.732Z,981.41
2018-11-23T09:47:10.475Z,981.44
2018-11-23T09:48:05.196Z,981.36
2018-11-23T09:49:05.171Z,981.44
2018-11-23T09:50:05.293Z,981.44
2018-11-23T09:51:04.582Z,981.35
2018-11-23T09:52:05.440Z,981.30
2018-11-23T09:53:05.418Z,981.35
2018-11-23T09:54:04.588Z,981.35
2018-11-23T09:55:04.977Z,981.41
2018-11-23T09:56:05.518Z,981.40
2018-11-23T09:57:05.048Z,981.40
2018-11-23T09:58:05.037Z,981.40
2018-11-23T09:59:05.263Z,981.34
2018-11-23T10:00:04.529Z,981.34
2018-11-23T10:02:04.992Z,981.31
2018-11-23T10:03:05.253Z,981.31
2018-11-23T10:04:09.750Z,981.31
2018-11-23T10:05:05.110Z,981.34
2018-11-23T10:06:05.029Z,981.31
2018-11-23T10:07:05.047Z,981.22
2018-11-23T10:08:04.696Z,981.31
2018-11-23T10:09:04.658Z,981.36
2018-11-23T10:10:04.723Z,981.48
2018-11-23T10:11:05.171Z,981.28
2018-11-23T10:12:04.463Z,981.42
2018-11-23T10:13:04.695Z,981.33
2018-11-23T10:14:04.660Z,981.45
2018-11-23T10:15:04.510Z,981.25
2018-11-23T10:16:04.559Z,981.39
2018-11-23T10:17:05.000Z,981.28
2018-11-23T10:18:04.634Z,981.22
2018-11-23T10:19:04.767Z,981.16
2018-11-23T10:20:04.532Z,981.28
2018-11-23T10:21:05.040Z,981.16
2018-11-23T10:22:05.281Z,981.22
2018-11-23T10:23:05.257Z,981.25
2018-11-23T10:24:05.213Z,981.13
2018-11-23T10:25:04.592Z,981.25
2018-11-23T10:26:04.609Z,981.19
2018-11-23T10:27:05.069Z,981.11
2018-11-23T10:28:05.569Z,981.08
2018-11-23T10:29:04.848Z,981.13
2018-11-23T10:30:05.371Z,981.11
2018-11-23T10:31:05.587Z,981.22
2018-11-23T10:32:05.151Z,981.05
2018-11-23T10:33:05.010Z,981.22
2018-11-23T10:34:05.514Z,981.13
2018-11-23T10:35:04.797Z,981.02
2018-11-23T10:36:04.984Z,981.05
2018-11-23T10:37:04.991Z,981.10
2018-11-23T10:38:10.487Z,981.10
2018-11-23T10:39:04.934Z,981.07
2018-11-23T10:40:04.520Z,981.02
2018-11-23T10:41:04.986Z,981.07
2018-11-23T10:42:05.038Z,981.04
2018-11-23T10:43:04.696Z,980.99
2018-11-23T10:44:04.685Z,981.07
2018-11-23T10:45:04.717Z,981.07
2018-11-23T10:46:05.354Z,981.13
2018-11-23T10:47:05.394Z,981.04
2018-11-23T10:48:04.862Z,981.04
2018-11-23T10:49:05.318Z,980.98
2018-11-23T10:50:05.353Z,980.90
2018-11-23T10:51:04.668Z,981.01
2018-11-23T10:52:04.955Z,981.04
2018-11-23T10:53:04.627Z,980.87
2018-11-23T10:54:05.048Z,981.15
2018-11-23T10:55:05.479Z,981.01
2018-11-23T10:56:04.610Z,980.95
2018-11-23T10:57:04.894Z,980.90
2018-11-23T10:58:10.126Z,980.81
2018-11-23T10:59:04.581Z,980.95
2018-11-23T11:00:04.994Z,980.87
2018-11-23T11:01:05.319Z,980.81
2018-11-23T11:02:04.630Z,980.89
2018-11-23T11:03:05.379Z,981.06
2018-11-23T11:04:04.596Z,981.00
2018-11-23T11:05:04.651Z,981.06
2018-11-23T11:06:04.721Z,981.06
2018-11-23T11:07:04.766Z,980.86
2018-11-23T11:08:04.996Z,980.98
2018-11-23T11:09:04.625Z,981.03
2018-11-23T11:10:04.691Z,980.95
2018-11-23T11:11:04.937Z,980.72
2018-11-23T11:12:04.774Z,980.86
2018-11-23T11:13:04.651Z,980.89
2018-11-23T11:14:05.273Z,980.66
2018-11-23T11:15:05.309Z,980.86
2018-11-23T11:16:04.561Z,980.75
2018-11-23T11:17:04.956Z,980.77
2018-11-23T11:18:05.376Z,980.75
2018-11-23T11:19:05.540Z,980.77
2018-11-23T11:20:05.475Z,980.75
2018-11-23T11:21:04.709Z,980.77
2018-11-23T11:22:04.523Z,980.77
2018-11-23T11:23:04.724Z,980.66
2018-11-23T11:24:05.048Z,980.74
2018-11-23T11:25:05.100Z,980.66
2018-11-23T11:26:05.153Z,980.77
2018-11-23T11:27:04.526Z,980.72
2018-11-23T11:28:09.717Z,980.63
2018-11-23T11:29:05.035Z,980.74
2018-11-23T11:30:05.115Z,980.57
2018-11-23T11:31:04.528Z,980.57
2018-11-23T11:32:04.609Z,980.57
2018-11-23T11:33:04.591Z,980.54
2018-11-23T11:34:04.787Z,980.52
2018-11-23T11:35:05.374Z,980.43
2018-11-23T11:36:05.400Z,980.49
2018-11-23T11:37:04.816Z,980.51
2018-11-23T11:38:05.248Z,980.51
2018-11-23T11:39:05.451Z,980.49
2018-11-23T11:40:05.615Z,980.32
2018-11-23T11:41:04.907Z,980.46
2018-11-23T11:42:04.516Z,980.46
2018-11-23T11:43:04.544Z,980.51
2018-11-23T11:44:04.674Z,980.37
2018-11-23T11:45:04.571Z,980.51
2018-11-23T11:46:04.741Z,980.31
2018-11-23T11:47:04.651Z,980.29
2018-11-23T11:48:10.286Z,980.43
2018-11-23T11:49:04.673Z,980.45
2018-11-23T11:50:04.718Z,980.45
2018-11-23T11:51:04.870Z,980.42
2018-11-23T11:52:04.789Z,980.37
2018-11-23T11:53:04.463Z,980.48
2018-11-23T11:54:04.671Z,980.34
2018-11-23T11:55:05.178Z,980.36
2018-11-23T11:56:05.193Z,980.28
2018-11-23T11:57:05.654Z,980.42
2018-11-23T11:58:05.443Z,980.28
2018-11-23T11:59:04.805Z,980.31
2018-11-23T12:00:04.787Z,980.33
2018-11-23T12:01:05.012Z,980.30
2018-11-23T12:02:10.567Z,980.25
2018-11-23T12:03:05.348Z,980.22
2018-11-23T12:04:05.405Z,980.22
2018-11-23T12:05:05.400Z,980.30
2018-11-23T12:06:05.346Z,980.22
2018-11-23T12:07:04.860Z,980.08
2018-11-23T12:08:04.842Z,980.14
2018-11-23T12:09:04.804Z,980.14
2018-11-23T12:10:05.019Z,980.08
2018-11-23T12:11:05.137Z,980.11
2018-11-23T12:12:05.079Z,980.11
2018-11-23T12:13:05.430Z,980.11
2018-11-23T12:14:05.359Z,980.11
2018-11-23T12:15:05.336Z,980.05
2018-11-23T12:16:04.719Z,980.05
2018-11-23T12:17:04.780Z,980.35
2018-11-23T12:18:05.290Z,980.24
2018-11-23T12:19:08.307Z,980.14
2018-11-23T12:20:05.163Z,980.05
2018-11-23T12:21:05.145Z,980.21
2018-11-23T12:22:05.083Z,980.24
2018-11-23T12:23:04.626Z,980.14
2018-11-23T12:24:04.733Z,980.11
2018-11-23T12:25:05.173Z,980.14
2018-11-23T12:26:04.607Z,980.11
2018-11-23T12:27:04.841Z,980.08
2018-11-23T12:28:10.527Z,980.11
2018-11-23T12:29:04.932Z,980.05